sensor_id;sensor_type;location;lat;lon;timestamp;temperature;humidity
58951;DHT22;44730;53.158;6.398;2022-09-30T00:01:24;7.60;99.90
58951;DHT22;44730;53.158;6.398;2022-09-30T00:03:52;7.70;99.90
58951;DHT22;44730;53.158;6.398;2022-09-30T00:06:18;7.70;99.90
58951;DHT22;44730;53.158;6.398;2022-09-30T00:08:45;7.70;99.90
58951;DHT22;44730;53.158;6.398;2022-09-30T00:11:15;8.30;99.90
58951;DHT22;44730;53.158;6.398;2022-09-30T00:13:43;7.70;99.90
58951;DHT22;44730;53.158;6.398;2022-09-30T00:16:10;7.70;99.90
58951;DHT22;44730;53.158;6.398;2022-09-30T00:18:37;8.10;99.90
58951;DHT22;44730;53.158;6.398;2022-09-30T00:21:04;7.90;99.90
58951;DHT22;44730;53.158;6.398;2022-09-30T00:23:29;7.70;99.90
58951;DHT22;44730;53.158;6.398;2022-09-30T00:26:03;7.60;99.90
58951;DHT22;44730;53.158;6.398;2022-09-30T00:28:29;7.60;99.90
58951;DHT22;44730;53.158;6.398;2022-09-30T00:31:03;7.50;99.90
58951;DHT22;44730;53.158;6.398;2022-09-30T00:33:30;7.40;99.90
58951;DHT22;44730;53.158;6.398;2022-09-30T00:35:55;7.40;99.90
58951;DHT22;44730;53.158;6.398;2022-09-30T00:38:21;7.40;99.90
58951;DHT22;44730;53.158;6.398;2022-09-30T00:40:47;7.30;99.90
58951;DHT22;44730;53.158;6.398;2022-09-30T00:43:17;7.30;99.90
58951;DHT22;44730;53.158;6.398;2022-09-30T00:45:52;7.30;99.90
58951;DHT22;44730;53.158;6.398;2022-09-30T00:48:40;7.70;99.90
58951;DHT22;44730;53.158;6.398;2022-09-30T00:51:06;7.20;99.90
58951;DHT22;44730;53.158;6.398;2022-09-30T00:53:46;7.20;99.90
58951;DHT22;44730;53.158;6.398;2022-09-30T00:56:24;7.20;99.90
58951;DHT22;44730;53.158;6.398;2022-09-30T01:01:41;7.00;99.90
58951;DHT22;44730;53.158;6.398;2022-09-30T01:04:13;7.70;99.90
58951;DHT22;44730;53.158;6.398;2022-09-30T01:06:39;6.90;99.90
58951;DHT22;44730;53.158;6.398;2022-09-30T01:09:05;7.40;99.90
58951;DHT22;44730;53.158;6.398;2022-09-30T01:11:31;7.00;99.90
58951;DHT22;44730;53.158;6.398;2022-09-30T01:14:13;7.70;99.90
58951;DHT22;44730;53.158;6.398;2022-09-30T01:17:02;6.80;99.90
58951;DHT22;44730;53.158;6.398;2022-09-30T01:19:48;6.80;99.90
58951;DHT22;44730;53.158;6.398;2022-09-30T01:25:31;6.70;99.90
58951;DHT22;44730;53.158;6.398;2022-09-30T01:33:48;6.60;99.90
58951;DHT22;44730;53.158;6.398;2022-09-30T01:47:13;6.60;99.90
58951;DHT22;44730;53.158;6.398;2022-09-30T01:49:42;6.60;99.90
58951;DHT22;44730;53.158;6.398;2022-09-30T01:52:15;6.50;99.90
58951;DHT22;44730;53.158;6.398;2022-09-30T01:54:54;6.50;99.90
58951;DHT22;44730;53.158;6.398;2022-09-30T01:57:32;6.70;99.90
58951;DHT22;44730;53.158;6.398;2022-09-30T02:00:05;6.50;99.90
58951;DHT22;44730;53.158;6.398;2022-09-30T02:02:41;6.50;99.90
58951;DHT22;44730;53.158;6.398;2022-09-30T02:05:23;6.50;99.90
58951;DHT22;44730;53.158;6.398;2022-09-30T02:08:24;6.40;99.90
58951;DHT22;44730;53.158;6.398;2022-09-30T02:10:58;6.40;99.90
58951;DHT22;44730;53.158;6.398;2022-09-30T02:13:39;7.30;99.90
58951;DHT22;44730;53.158;6.398;2022-09-30T02:16:10;6.40;99.90
58951;DHT22;44730;53.158;6.398;2022-09-30T02:19:07;6.30;99.90
58951;DHT22;44730;53.158;6.398;2022-09-30T02:21:32;6.80;99.90
58951;DHT22;44730;53.158;6.398;2022-09-30T02:24:02;7.00;99.90
58951;DHT22;44730;53.158;6.398;2022-09-30T02:26:35;6.50;99.90
58951;DHT22;44730;53.158;6.398;2022-09-30T02:29:20;7.10;99.90
58951;DHT22;44730;53.158;6.398;2022-09-30T02:31:51;6.20;99.90
58951;DHT22;44730;53.158;6.398;2022-09-30T02:34:24;6.10;99.90
58951;DHT22;44730;53.158;6.398;2022-09-30T02:37:00;7.60;99.90
58951;DHT22;44730;53.158;6.398;2022-09-30T02:39:38;6.10;99.90
58951;DHT22;44730;53.158;6.398;2022-09-30T02:42:17;6.10;99.90
58951;DHT22;44730;53.158;6.398;2022-09-30T02:44:49;6.10;99.90
58951;DHT22;44730;53.158;6.398;2022-09-30T02:50:10;6.00;99.90
58951;DHT22;44730;53.158;6.398;2022-09-30T02:52:47;5.90;99.90
58951;DHT22;44730;53.158;6.398;2022-09-30T02:58:17;5.90;99.90
58951;DHT22;44730;53.158;6.398;2022-09-30T03:00:44;5.90;99.90
58951;DHT22;44730;53.158;6.398;2022-09-30T03:03:27;5.90;99.90
58951;DHT22;44730;53.158;6.398;2022-09-30T03:05:53;5.90;99.90
58951;DHT22;44730;53.158;6.398;2022-09-30T03:08:19;5.90;99.90
58951;DHT22;44730;53.158;6.398;2022-09-30T03:10:47;5.90;99.90
58951;DHT22;44730;53.158;6.398;2022-09-30T03:16:18;6.10;99.90
58951;DHT22;44730;53.158;6.398;2022-09-30T03:24:10;6.10;99.90
58951;DHT22;44730;53.158;6.398;2022-09-30T03:26:51;6.10;99.90
58951;DHT22;44730;53.158;6.398;2022-09-30T03:29:48;6.10;99.90
58951;DHT22;44730;53.158;6.398;2022-09-30T03:41:27;6.00;99.90
58951;DHT22;44730;53.158;6.398;2022-09-30T03:44:06;6.00;99.90
58951;DHT22;44730;53.158;6.398;2022-09-30T03:46:42;6.00;99.90
58951;DHT22;44730;53.158;6.398;2022-09-30T03:49:22;6.10;99.90
58951;DHT22;44730;53.158;6.398;2022-09-30T03:51:48;6.20;99.90
58951;DHT22;44730;53.158;6.398;2022-09-30T03:54:14;6.00;99.90
58951;DHT22;44730;53.158;6.398;2022-09-30T03:56:41;6.00;99.90
58951;DHT22;44730;53.158;6.398;2022-09-30T03:59:24;5.90;99.90
58951;DHT22;44730;53.158;6.398;2022-09-30T04:01:51;5.90;99.90
58951;DHT22;44730;53.158;6.398;2022-09-30T04:04:17;5.80;99.90
58951;DHT22;44730;53.158;6.398;2022-09-30T04:06:43;5.80;99.90
58951;DHT22;44730;53.158;6.398;2022-09-30T04:09:08;5.80;99.90
58951;DHT22;44730;53.158;6.398;2022-09-30T04:11:34;5.80;99.90
58951;DHT22;44730;53.158;6.398;2022-09-30T04:14:00;6.60;99.90
58951;DHT22;44730;53.158;6.398;2022-09-30T04:16:28;5.70;99.90
58951;DHT22;44730;53.158;6.398;2022-09-30T04:18:54;5.70;99.90
58951;DHT22;44730;53.158;6.398;2022-09-30T04:21:21;5.60;99.90
58951;DHT22;44730;53.158;6.398;2022-09-30T04:23:48;6.20;99.90
58951;DHT22;44730;53.158;6.398;2022-09-30T04:26:15;5.60;99.90
58951;DHT22;44730;53.158;6.398;2022-09-30T04:28:42;5.80;99.90
58951;DHT22;44730;53.158;6.398;2022-09-30T04:31:10;5.50;99.90
58951;DHT22;44730;53.158;6.398;2022-09-30T04:33:40;5.50;99.90
58951;DHT22;44730;53.158;6.398;2022-09-30T04:36:06;5.60;99.90
58951;DHT22;44730;53.158;6.398;2022-09-30T04:38:32;5.40;99.90
58951;DHT22;44730;53.158;6.398;2022-09-30T04:41:01;6.20;99.90
58951;DHT22;44730;53.158;6.398;2022-09-30T04:43:27;5.50;99.90
58951;DHT22;44730;53.158;6.398;2022-09-30T04:45:54;5.50;99.90
58951;DHT22;44730;53.158;6.398;2022-09-30T04:48:20;5.60;99.90
58951;DHT22;44730;53.158;6.398;2022-09-30T04:50:47;5.40;99.90
58951;DHT22;44730;53.158;6.398;2022-09-30T04:53:13;5.90;99.90
58951;DHT22;44730;53.158;6.398;2022-09-30T04:55:40;5.50;99.90
58951;DHT22;44730;53.158;6.398;2022-09-30T04:58:06;6.00;99.90
58951;DHT22;44730;53.158;6.398;2022-09-30T05:00:31;5.60;99.90
58951;DHT22;44730;53.158;6.398;2022-09-30T05:02:57;5.70;99.90
58951;DHT22;44730;53.158;6.398;2022-09-30T05:05:23;6.30;99.90
58951;DHT22;44730;53.158;6.398;2022-09-30T05:07:49;5.90;99.90
58951;DHT22;44730;53.158;6.398;2022-09-30T05:10:14;5.90;99.90
58951;DHT22;44730;53.158;6.398;2022-09-30T05:12:41;5.70;99.90
58951;DHT22;44730;53.158;6.398;2022-09-30T05:15:08;5.60;99.90
58951;DHT22;44730;53.158;6.398;2022-09-30T05:17:34;5.60;99.90
58951;DHT22;44730;53.158;6.398;2022-09-30T05:19:59;5.50;99.90
58951;DHT22;44730;53.158;6.398;2022-09-30T05:22:26;5.50;99.90
58951;DHT22;44730;53.158;6.398;2022-09-30T05:24:52;5.50;99.90
58951;DHT22;44730;53.158;6.398;2022-09-30T05:27:21;6.30;99.90
58951;DHT22;44730;53.158;6.398;2022-09-30T05:29:47;6.10;99.90
58951;DHT22;44730;53.158;6.398;2022-09-30T05:32:13;5.40;99.90
58951;DHT22;44730;53.158;6.398;2022-09-30T05:34:38;5.90;99.90
58951;DHT22;44730;53.158;6.398;2022-09-30T05:37:04;5.40;99.90
58951;DHT22;44730;53.158;6.398;2022-09-30T05:39:30;5.40;99.90
58951;DHT22;44730;53.158;6.398;2022-09-30T05:41:57;6.30;99.90
58951;DHT22;44730;53.158;6.398;2022-09-30T05:44:23;5.70;99.90
58951;DHT22;44730;53.158;6.398;2022-09-30T05:46:49;6.20;99.90
58951;DHT22;44730;53.158;6.398;2022-09-30T05:49:15;5.70;99.90
58951;DHT22;44730;53.158;6.398;2022-09-30T05:51:40;6.40;99.90
58951;DHT22;44730;53.158;6.398;2022-09-30T05:54:06;5.70;99.90
58951;DHT22;44730;53.158;6.398;2022-09-30T05:56:32;5.60;99.90
58951;DHT22;44730;53.158;6.398;2022-09-30T05:59:05;5.60;99.90
58951;DHT22;44730;53.158;6.398;2022-09-30T06:01:31;5.60;99.90
58951;DHT22;44730;53.158;6.398;2022-09-30T06:03:57;5.70;99.90
58951;DHT22;44730;53.158;6.398;2022-09-30T06:06:23;5.70;99.90
58951;DHT22;44730;53.158;6.398;2022-09-30T06:08:49;6.50;99.90
58951;DHT22;44730;53.158;6.398;2022-09-30T06:11:19;5.70;99.90
58951;DHT22;44730;53.158;6.398;2022-09-30T06:13:46;5.90;99.90
58951;DHT22;44730;53.158;6.398;2022-09-30T06:16:13;5.80;99.90
58951;DHT22;44730;53.158;6.398;2022-09-30T06:18:39;6.40;99.90
58951;DHT22;44730;53.158;6.398;2022-09-30T06:21:07;5.90;99.90
58951;DHT22;44730;53.158;6.398;2022-09-30T06:23:34;6.10;99.90
58951;DHT22;44730;53.158;6.398;2022-09-30T06:26:00;6.10;99.90
58951;DHT22;44730;53.158;6.398;2022-09-30T06:28:26;6.10;99.90
58951;DHT22;44730;53.158;6.398;2022-09-30T06:30:52;6.20;99.90
58951;DHT22;44730;53.158;6.398;2022-09-30T06:33:19;6.80;99.90
58951;DHT22;44730;53.158;6.398;2022-09-30T06:35:46;6.30;99.90
58951;DHT22;44730;53.158;6.398;2022-09-30T06:38:13;6.50;99.90
58951;DHT22;44730;53.158;6.398;2022-09-30T06:40:41;6.60;99.90
58951;DHT22;44730;53.158;6.398;2022-09-30T06:43:07;8.00;99.90
58951;DHT22;44730;53.158;6.398;2022-09-30T06:45:34;7.50;99.90
58951;DHT22;44730;53.158;6.398;2022-09-30T06:48:02;7.20;99.90
58951;DHT22;44730;53.158;6.398;2022-09-30T06:50:32;7.40;99.90
58951;DHT22;44730;53.158;6.398;2022-09-30T06:53:02;7.60;99.90
58951;DHT22;44730;53.158;6.398;2022-09-30T06:55:31;8.20;99.90
58951;DHT22;44730;53.158;6.398;2022-09-30T06:57:57;8.10;99.90
58951;DHT22;44730;53.158;6.398;2022-09-30T07:00:24;8.30;99.90
58951;DHT22;44730;53.158;6.398;2022-09-30T07:02:50;8.70;99.90
58951;DHT22;44730;53.158;6.398;2022-09-30T07:05:16;9.00;99.90
58951;DHT22;44730;53.158;6.398;2022-09-30T07:07:42;9.40;99.90
58951;DHT22;44730;53.158;6.398;2022-09-30T07:10:09;9.80;99.90
58951;DHT22;44730;53.158;6.398;2022-09-30T07:12:35;10.20;99.90
58951;DHT22;44730;53.158;6.398;2022-09-30T07:15:02;10.60;99.90
58951;DHT22;44730;53.158;6.398;2022-09-30T07:17:28;11.10;99.90
58951;DHT22;44730;53.158;6.398;2022-09-30T07:19:54;11.50;99.90
58951;DHT22;44730;53.158;6.398;2022-09-30T07:22:20;11.90;99.90
58951;DHT22;44730;53.158;6.398;2022-09-30T07:24:57;12.30;99.90
58951;DHT22;44730;53.158;6.398;2022-09-30T07:27:24;12.70;99.90
58951;DHT22;44730;53.158;6.398;2022-09-30T07:29:51;13.10;99.90
58951;DHT22;44730;53.158;6.398;2022-09-30T07:32:16;13.40;99.90
58951;DHT22;44730;53.158;6.398;2022-09-30T07:34:44;13.80;99.90
58951;DHT22;44730;53.158;6.398;2022-09-30T07:37:12;14.30;99.90
58951;DHT22;44730;53.158;6.398;2022-09-30T07:39:47;14.70;99.90
58951;DHT22;44730;53.158;6.398;2022-09-30T07:42:14;15.00;99.90
58951;DHT22;44730;53.158;6.398;2022-09-30T07:44:40;15.30;99.90
58951;DHT22;44730;53.158;6.398;2022-09-30T07:47:12;15.40;99.90
58951;DHT22;44730;53.158;6.398;2022-09-30T07:49:40;15.70;99.90
58951;DHT22;44730;53.158;6.398;2022-09-30T07:52:07;15.90;99.90
58951;DHT22;44730;53.158;6.398;2022-09-30T07:54:33;16.10;99.90
58951;DHT22;44730;53.158;6.398;2022-09-30T07:57:00;16.40;99.90
58951;DHT22;44730;53.158;6.398;2022-09-30T07:59:28;16.60;99.90
58951;DHT22;44730;53.158;6.398;2022-09-30T08:01:54;16.80;99.90
58951;DHT22;44730;53.158;6.398;2022-09-30T08:04:21;17.00;99.90
58951;DHT22;44730;53.158;6.398;2022-09-30T08:06:50;17.00;99.90
58951;DHT22;44730;53.158;6.398;2022-09-30T08:09:19;17.20;99.90
58951;DHT22;44730;53.158;6.398;2022-09-30T08:11:45;17.30;99.90
58951;DHT22;44730;53.158;6.398;2022-09-30T08:14:19;17.30;99.90
58951;DHT22;44730;53.158;6.398;2022-09-30T08:16:45;17.50;99.90
58951;DHT22;44730;53.158;6.398;2022-09-30T08:19:17;17.70;99.90
58951;DHT22;44730;53.158;6.398;2022-09-30T08:21:43;17.90;99.90
58951;DHT22;44730;53.158;6.398;2022-09-30T08:24:10;17.90;99.90
58951;DHT22;44730;53.158;6.398;2022-09-30T08:26:37;17.90;99.90
58951;DHT22;44730;53.158;6.398;2022-09-30T08:29:03;18.10;99.90
58951;DHT22;44730;53.158;6.398;2022-09-30T08:31:29;18.10;99.90
58951;DHT22;44730;53.158;6.398;2022-09-30T08:33:55;17.60;99.90
58951;DHT22;44730;53.158;6.398;2022-09-30T08:36:23;17.10;99.90
58951;DHT22;44730;53.158;6.398;2022-09-30T08:38:49;16.80;99.90
58951;DHT22;44730;53.158;6.398;2022-09-30T08:44:42;16.10;99.90
58951;DHT22;44730;53.158;6.398;2022-09-30T08:52:41;15.40;99.90
58951;DHT22;44730;53.158;6.398;2022-09-30T08:55:14;15.40;99.90
58951;DHT22;44730;53.158;6.398;2022-09-30T08:57:42;15.30;99.90
58951;DHT22;44730;53.158;6.398;2022-09-30T09:00:13;15.10;99.90
58951;DHT22;44730;53.158;6.398;2022-09-30T09:02:59;15.00;99.90
58951;DHT22;44730;53.158;6.398;2022-09-30T09:05:40;15.20;99.90
58951;DHT22;44730;53.158;6.398;2022-09-30T09:13:51;16.30;99.90
58951;DHT22;44730;53.158;6.398;2022-09-30T09:16:52;16.70;99.90
58951;DHT22;44730;53.158;6.398;2022-09-30T09:19:24;17.00;99.90
58951;DHT22;44730;53.158;6.398;2022-09-30T09:21:57;17.20;99.90
58951;DHT22;44730;53.158;6.398;2022-09-30T09:24:39;17.40;99.90
58951;DHT22;44730;53.158;6.398;2022-09-30T09:27:17;17.50;99.90
58951;DHT22;44730;53.158;6.398;2022-09-30T09:30:03;17.50;99.90
58951;DHT22;44730;53.158;6.398;2022-09-30T09:32:31;17.10;99.90
58951;DHT22;44730;53.158;6.398;2022-09-30T09:34:59;16.80;99.90
58951;DHT22;44730;53.158;6.398;2022-09-30T09:38:00;17.20;99.90
58951;DHT22;44730;53.158;6.398;2022-09-30T09:43:37;18.00;99.90
58951;DHT22;44730;53.158;6.398;2022-09-30T09:46:23;18.70;99.90
58951;DHT22;44730;53.158;6.398;2022-09-30T09:49:20;19.70;99.90
58951;DHT22;44730;53.158;6.398;2022-09-30T09:52:29;20.40;99.90
58951;DHT22;44730;53.158;6.398;2022-09-30T09:55:01;21.10;99.90
58951;DHT22;44730;53.158;6.398;2022-09-30T09:57:28;21.40;99.90
58951;DHT22;44730;53.158;6.398;2022-09-30T10:02:57;21.60;99.90
58951;DHT22;44730;53.158;6.398;2022-09-30T10:05:24;21.40;99.90
58951;DHT22;44730;53.158;6.398;2022-09-30T10:08:17;21.60;99.90
58951;DHT22;44730;53.158;6.398;2022-09-30T10:10:44;22.10;99.90
58951;DHT22;44730;53.158;6.398;2022-09-30T10:13:30;22.20;99.90
58951;DHT22;44730;53.158;6.398;2022-09-30T10:15:58;22.40;99.90
58951;DHT22;44730;53.158;6.398;2022-09-30T10:18:35;22.80;99.90
58951;DHT22;44730;53.158;6.398;2022-09-30T10:21:21;23.00;99.90
58951;DHT22;44730;53.158;6.398;2022-09-30T10:23:47;22.60;99.90
58951;DHT22;44730;53.158;6.398;2022-09-30T10:31:24;21.60;99.90
58951;DHT22;44730;53.158;6.398;2022-09-30T10:34:30;21.00;99.90
58951;DHT22;44730;53.158;6.398;2022-09-30T10:37:00;20.10;99.90
58951;DHT22;44730;53.158;6.398;2022-09-30T10:39:31;19.20;99.90
58951;DHT22;44730;53.158;6.398;2022-09-30T10:42:18;18.80;99.90
58951;DHT22;44730;53.158;6.398;2022-09-30T10:47:19;18.10;99.90
58951;DHT22;44730;53.158;6.398;2022-09-30T10:49:55;17.90;99.90
58951;DHT22;44730;53.158;6.398;2022-09-30T10:52:28;17.60;99.90
58951;DHT22;44730;53.158;6.398;2022-09-30T10:55:00;17.40;99.90
58951;DHT22;44730;53.158;6.398;2022-09-30T10:57:37;17.30;99.90
58951;DHT22;44730;53.158;6.398;2022-09-30T11:03:15;16.90;99.90
58951;DHT22;44730;53.158;6.398;2022-09-30T11:05:44;16.90;99.90
58951;DHT22;44730;53.158;6.398;2022-09-30T11:08:35;16.80;99.90
58951;DHT22;44730;53.158;6.398;2022-09-30T11:11:23;16.90;99.90
58951;DHT22;44730;53.158;6.398;2022-09-30T11:19:43;17.20;99.90
58951;DHT22;44730;53.158;6.398;2022-09-30T11:22:30;17.50;99.90
58951;DHT22;44730;53.158;6.398;2022-09-30T11:24:56;18.40;99.90
58951;DHT22;44730;53.158;6.398;2022-09-30T11:35:31;23.10;99.00
58951;DHT22;44730;53.158;6.398;2022-09-30T11:38:25;23.40;97.90
58951;DHT22;44730;53.158;6.398;2022-09-30T11:57:13;24.10;90.40
58951;DHT22;44730;53.158;6.398;2022-09-30T12:00:13;24.40;91.40
58951;DHT22;44730;53.158;6.398;2022-09-30T12:02:45;24.70;87.10
58951;DHT22;44730;53.158;6.398;2022-09-30T12:05:35;24.60;90.00
58951;DHT22;44730;53.158;6.398;2022-09-30T12:10:47;23.60;87.30
58951;DHT22;44730;53.158;6.398;2022-09-30T12:13:28;22.30;90.70
58951;DHT22;44730;53.158;6.398;2022-09-30T12:15:56;21.60;93.30
58951;DHT22;44730;53.158;6.398;2022-09-30T12:21:08;23.20;92.40
58951;DHT22;44730;53.158;6.398;2022-09-30T12:23:47;23.90;91.00
58951;DHT22;44730;53.158;6.398;2022-09-30T12:26:14;24.50;90.10
58951;DHT22;44730;53.158;6.398;2022-09-30T12:28:53;25.00;88.40
58951;DHT22;44730;53.158;6.398;2022-09-30T12:32:14;25.60;83.00
58951;DHT22;44730;53.158;6.398;2022-09-30T12:49:04;21.40;90.30
58951;DHT22;44730;53.158;6.398;2022-09-30T12:51:31;20.70;92.00
58951;DHT22;44730;53.158;6.398;2022-09-30T12:54:20;21.00;92.90
58951;DHT22;44730;53.158;6.398;2022-09-30T12:56:53;22.40;91.60
58951;DHT22;44730;53.158;6.398;2022-09-30T12:59:25;23.10;90.20
58951;DHT22;44730;53.158;6.398;2022-09-30T13:01:52;22.50;88.60
58951;DHT22;44730;53.158;6.398;2022-09-30T13:04:34;22.60;90.00
58951;DHT22;44730;53.158;6.398;2022-09-30T13:14:41;24.80;81.90
58951;DHT22;44730;53.158;6.398;2022-09-30T13:19:35;23.50;80.50
58951;DHT22;44730;53.158;6.398;2022-09-30T13:27:48;22.10;86.20
58951;DHT22;44730;53.158;6.398;2022-09-30T13:32:43;22.40;83.30
58951;DHT22;44730;53.158;6.398;2022-09-30T13:35:48;21.70;85.00
58951;DHT22;44730;53.158;6.398;2022-09-30T13:38:19;20.80;89.20
58951;DHT22;44730;53.158;6.398;2022-09-30T13:43:33;21.80;89.40
58951;DHT22;44730;53.158;6.398;2022-09-30T13:46:06;23.00;87.20
58951;DHT22;44730;53.158;6.398;2022-09-30T13:48:38;24.10;84.10
58951;DHT22;44730;53.158;6.398;2022-09-30T13:51:10;24.20;82.30
58951;DHT22;44730;53.158;6.398;2022-09-30T13:53:38;23.70;81.80
58951;DHT22;44730;53.158;6.398;2022-09-30T13:56:29;22.80;83.00
58951;DHT22;44730;53.158;6.398;2022-09-30T14:15:34;24.30;78.20
58951;DHT22;44730;53.158;6.398;2022-09-30T14:21:23;23.90;76.30
58951;DHT22;44730;53.158;6.398;2022-09-30T14:24:10;23.10;77.40
58951;DHT22;44730;53.158;6.398;2022-09-30T14:26:43;22.80;79.70
58951;DHT22;44730;53.158;6.398;2022-09-30T14:29:28;22.20;80.80
58951;DHT22;44730;53.158;6.398;2022-09-30T14:31:58;22.60;81.10
58951;DHT22;44730;53.158;6.398;2022-09-30T14:34:25;22.20;81.70
58951;DHT22;44730;53.158;6.398;2022-09-30T14:36:52;22.10;82.60
58951;DHT22;44730;53.158;6.398;2022-09-30T14:39:26;21.70;82.60
58951;DHT22;44730;53.158;6.398;2022-09-30T14:41:59;21.40;82.60
58951;DHT22;44730;53.158;6.398;2022-09-30T14:44:29;20.80;84.00
58951;DHT22;44730;53.158;6.398;2022-09-30T14:46:58;20.20;86.60
58951;DHT22;44730;53.158;6.398;2022-09-30T14:49:28;19.80;89.00
58951;DHT22;44730;53.158;6.398;2022-09-30T14:52:01;19.30;90.30
58951;DHT22;44730;53.158;6.398;2022-09-30T14:54:31;19.00;91.20
58951;DHT22;44730;53.158;6.398;2022-09-30T14:56:59;18.90;91.80
58951;DHT22;44730;53.158;6.398;2022-09-30T14:59:28;18.60;92.60
58951;DHT22;44730;53.158;6.398;2022-09-30T15:02:16;18.50;93.40
58951;DHT22;44730;53.158;6.398;2022-09-30T15:04:51;18.30;94.40
58951;DHT22;44730;53.158;6.398;2022-09-30T15:07:18;18.40;94.80
58951;DHT22;44730;53.158;6.398;2022-09-30T15:09:45;18.20;95.40
58951;DHT22;44730;53.158;6.398;2022-09-30T15:12:18;18.20;95.60
58951;DHT22;44730;53.158;6.398;2022-09-30T15:14:58;18.00;96.00
58951;DHT22;44730;53.158;6.398;2022-09-30T15:17:29;17.80;96.20
58951;DHT22;44730;53.158;6.398;2022-09-30T15:19:57;17.60;96.50
58951;DHT22;44730;53.158;6.398;2022-09-30T15:22:24;17.40;97.30
58951;DHT22;44730;53.158;6.398;2022-09-30T15:24:51;17.30;98.30
58951;DHT22;44730;53.158;6.398;2022-09-30T15:27:22;17.10;98.60
58951;DHT22;44730;53.158;6.398;2022-09-30T15:32:29;16.90;99.90
58951;DHT22;44730;53.158;6.398;2022-09-30T15:35:02;16.70;99.90
58951;DHT22;44730;53.158;6.398;2022-09-30T15:37:29;16.60;99.90
58951;DHT22;44730;53.158;6.398;2022-09-30T15:39:59;16.50;99.90
58951;DHT22;44730;53.158;6.398;2022-09-30T15:42:56;16.40;99.90
58951;DHT22;44730;53.158;6.398;2022-09-30T15:45:30;16.30;99.90
58951;DHT22;44730;53.158;6.398;2022-09-30T15:48:01;16.20;99.90
58951;DHT22;44730;53.158;6.398;2022-09-30T15:50:38;16.20;99.90
58951;DHT22;44730;53.158;6.398;2022-09-30T15:53:13;16.10;99.90
58951;DHT22;44730;53.158;6.398;2022-09-30T15:55:42;16.00;99.90
58951;DHT22;44730;53.158;6.398;2022-09-30T15:58:34;16.00;99.90
58951;DHT22;44730;53.158;6.398;2022-09-30T16:01:19;16.00;99.90
58951;DHT22;44730;53.158;6.398;2022-09-30T16:03:58;15.90;99.90
58951;DHT22;44730;53.158;6.398;2022-09-30T16:06:27;15.90;99.90
58951;DHT22;44730;53.158;6.398;2022-09-30T16:08:58;15.90;99.90
58951;DHT22;44730;53.158;6.398;2022-09-30T16:11:39;15.80;99.90
58951;DHT22;44730;53.158;6.398;2022-09-30T16:14:25;15.70;99.90
58951;DHT22;44730;53.158;6.398;2022-09-30T16:16:54;15.70;99.90
58951;DHT22;44730;53.158;6.398;2022-09-30T16:19:20;15.60;99.90
58951;DHT22;44730;53.158;6.398;2022-09-30T16:21:49;15.50;99.90
58951;DHT22;44730;53.158;6.398;2022-09-30T16:26:55;15.40;99.90
58951;DHT22;44730;53.158;6.398;2022-09-30T16:29:22;15.30;99.90
58951;DHT22;44730;53.158;6.398;2022-09-30T16:31:49;15.20;99.90
58951;DHT22;44730;53.158;6.398;2022-09-30T16:34:23;15.20;99.90
58951;DHT22;44730;53.158;6.398;2022-09-30T16:36:49;15.20;99.90
58951;DHT22;44730;53.158;6.398;2022-09-30T16:39:17;15.10;99.90
58951;DHT22;44730;53.158;6.398;2022-09-30T16:41:44;15.00;99.90
58951;DHT22;44730;53.158;6.398;2022-09-30T16:44:10;15.00;99.90
58951;DHT22;44730;53.158;6.398;2022-09-30T16:46:35;14.90;99.90
58951;DHT22;44730;53.158;6.398;2022-09-30T16:49:11;14.80;99.90
58951;DHT22;44730;53.158;6.398;2022-09-30T16:51:38;14.80;99.90
58951;DHT22;44730;53.158;6.398;2022-09-30T16:54:04;14.70;99.90
58951;DHT22;44730;53.158;6.398;2022-09-30T16:56:30;14.70;99.90
58951;DHT22;44730;53.158;6.398;2022-09-30T16:58:56;14.60;99.90
58951;DHT22;44730;53.158;6.398;2022-09-30T17:01:23;14.50;99.90
58951;DHT22;44730;53.158;6.398;2022-09-30T17:03:53;14.40;99.90
58951;DHT22;44730;53.158;6.398;2022-09-30T17:06:24;14.30;99.90
58951;DHT22;44730;53.158;6.398;2022-09-30T17:08:51;14.20;99.90
58951;DHT22;44730;53.158;6.398;2022-09-30T17:11:25;14.10;99.90
58951;DHT22;44730;53.158;6.398;2022-09-30T17:13:52;14.00;99.90
58951;DHT22;44730;53.158;6.398;2022-09-30T17:16:18;13.90;99.90
58951;DHT22;44730;53.158;6.398;2022-09-30T17:18:44;13.80;99.90
58951;DHT22;44730;53.158;6.398;2022-09-30T17:21:09;13.70;99.90
58951;DHT22;44730;53.158;6.398;2022-09-30T17:23:35;13.70;99.90
58951;DHT22;44730;53.158;6.398;2022-09-30T17:26:05;13.60;99.90
58951;DHT22;44730;53.158;6.398;2022-09-30T17:28:30;13.60;99.90
58951;DHT22;44730;53.158;6.398;2022-09-30T17:30:59;13.50;99.90
58951;DHT22;44730;53.158;6.398;2022-09-30T17:33:29;13.50;99.90
58951;DHT22;44730;53.158;6.398;2022-09-30T17:36:06;13.40;99.90
58951;DHT22;44730;53.158;6.398;2022-09-30T17:38:33;13.40;99.90
58951;DHT22;44730;53.158;6.398;2022-09-30T17:40:59;13.30;99.90
58951;DHT22;44730;53.158;6.398;2022-09-30T17:43:44;13.20;99.90
58951;DHT22;44730;53.158;6.398;2022-09-30T17:46:13;13.10;99.90
58951;DHT22;44730;53.158;6.398;2022-09-30T17:48:47;13.10;99.90
58951;DHT22;44730;53.158;6.398;2022-09-30T17:51:14;13.00;99.90
58951;DHT22;44730;53.158;6.398;2022-09-30T17:53:43;12.90;99.90
58951;DHT22;44730;53.158;6.398;2022-09-30T17:56:18;12.90;99.90
58951;DHT22;44730;53.158;6.398;2022-09-30T17:58:45;12.80;99.90
58951;DHT22;44730;53.158;6.398;2022-09-30T18:01:12;12.80;99.90
58951;DHT22;44730;53.158;6.398;2022-09-30T18:03:38;12.70;99.90
58951;DHT22;44730;53.158;6.398;2022-09-30T18:06:05;12.70;99.90
58951;DHT22;44730;53.158;6.398;2022-09-30T18:08:30;12.60;99.90
58951;DHT22;44730;53.158;6.398;2022-09-30T18:10:56;12.60;99.90
58951;DHT22;44730;53.158;6.398;2022-09-30T18:13:23;12.50;99.90
58951;DHT22;44730;53.158;6.398;2022-09-30T18:15:49;12.50;99.90
58951;DHT22;44730;53.158;6.398;2022-09-30T18:18:15;12.40;99.90
58951;DHT22;44730;53.158;6.398;2022-09-30T18:20:45;12.40;99.90
58951;DHT22;44730;53.158;6.398;2022-09-30T18:23:12;12.30;99.90
58951;DHT22;44730;53.158;6.398;2022-09-30T18:25:38;12.40;99.90
58951;DHT22;44730;53.158;6.398;2022-09-30T18:28:06;12.30;99.90
58951;DHT22;44730;53.158;6.398;2022-09-30T18:30:39;12.30;99.90
58951;DHT22;44730;53.158;6.398;2022-09-30T18:33:05;12.20;99.90
58951;DHT22;44730;53.158;6.398;2022-09-30T18:35:36;12.20;99.90
58951;DHT22;44730;53.158;6.398;2022-09-30T18:38:03;12.20;99.90
58951;DHT22;44730;53.158;6.398;2022-09-30T18:40:30;12.20;99.90
58951;DHT22;44730;53.158;6.398;2022-09-30T18:42:58;12.20;99.90
58951;DHT22;44730;53.158;6.398;2022-09-30T18:45:27;12.10;99.90
58951;DHT22;44730;53.158;6.398;2022-09-30T18:47:55;12.30;99.90
58951;DHT22;44730;53.158;6.398;2022-09-30T18:50:22;12.10;99.90
58951;DHT22;44730;53.158;6.398;2022-09-30T18:52:50;12.10;99.90
58951;DHT22;44730;53.158;6.398;2022-09-30T18:55:16;12.10;99.90
58951;DHT22;44730;53.158;6.398;2022-09-30T18:57:42;12.10;99.90